sensor_id;sensor_type;location;lat;lon;timestamp;temperature;humidity
25568;DHT22;13455;51.480;7.594;2023-09-07T00:31:10;19.70;99.90
25568;DHT22;13455;51.480;7.594;2023-09-07T00:33:35;19.70;99.90
25568;DHT22;13455;51.480;7.594;2023-09-07T00:36:02;19.70;99.90
25568;DHT22;13455;51.480;7.594;2023-09-07T00:40:54;19.50;99.90
25568;DHT22;13455;51.480;7.594;2023-09-07T00:50:40;19.30;99.90
25568;DHT22;13455;51.480;7.594;2023-09-07T00:53:05;19.30;99.90
25568;DHT22;13455;51.480;7.594;2023-09-07T00:55:33;19.10;99.90
25568;DHT22;13455;51.480;7.594;2023-09-07T00:58:01;19.00;99.90
25568;DHT22;13455;51.480;7.594;2023-09-07T01:00:27;19.00;99.90
25568;DHT22;13455;51.480;7.594;2023-09-07T01:02:52;19.00;99.90
25568;DHT22;13455;51.480;7.594;2023-09-07T01:05:20;18.90;99.90
25568;DHT22;13455;51.480;7.594;2023-09-07T01:08:02;18.90;99.90
25568;DHT22;13455;51.480;7.594;2023-09-07T01:10:30;18.80;99.90
25568;DHT22;13455;51.480;7.594;2023-09-07T01:12:55;18.70;99.90
25568;DHT22;13455;51.480;7.594;2023-09-07T01:15:21;18.60;99.90
25568;DHT22;13455;51.480;7.594;2023-09-07T01:17:47;18.60;99.90
25568;DHT22;13455;51.480;7.594;2023-09-07T01:20:14;18.50;99.90
25568;DHT22;13455;51.480;7.594;2023-09-07T01:25:08;18.50;99.90
25568;DHT22;13455;51.480;7.594;2023-09-07T01:27:35;18.60;99.90
25568;DHT22;13455;51.480;7.594;2023-09-07T01:30:01;18.60;99.90
25568;DHT22;13455;51.480;7.594;2023-09-07T02:09:01;18.00;99.90
25568;DHT22;13455;51.480;7.594;2023-09-07T02:11:26;18.00;99.90
25568;DHT22;13455;51.480;7.594;2023-09-07T02:13:52;17.40;99.90
25568;DHT22;13455;51.480;7.594;2023-09-07T02:16:17;17.80;99.90
25568;DHT22;13455;51.480;7.594;2023-09-07T02:18:44;17.70;99.90
25568;DHT22;13455;51.480;7.594;2023-09-07T02:21:11;17.70;99.90
25568;DHT22;13455;51.480;7.594;2023-09-07T02:23:37;17.90;99.90
25568;DHT22;13455;51.480;7.594;2023-09-07T02:26:03;17.70;99.90
25568;DHT22;13455;51.480;7.594;2023-09-07T02:28:29;17.80;99.90
25568;DHT22;13455;51.480;7.594;2023-09-07T02:30:55;17.70;99.90
25568;DHT22;13455;51.480;7.594;2023-09-07T02:33:27;17.70;99.90
25568;DHT22;13455;51.480;7.594;2023-09-07T02:35:53;17.70;99.90
25568;DHT22;13455;51.480;7.594;2023-09-07T02:38:19;17.70;99.90
25568;DHT22;13455;51.480;7.594;2023-09-07T02:40:44;17.70;99.90
25568;DHT22;13455;51.480;7.594;2023-09-07T02:43:10;17.70;99.90
25568;DHT22;13455;51.480;7.594;2023-09-07T02:45:36;17.60;99.90
25568;DHT22;13455;51.480;7.594;2023-09-07T02:48:02;17.60;99.90
25568;DHT22;13455;51.480;7.594;2023-09-07T02:50:33;17.60;99.90
25568;DHT22;13455;51.480;7.594;2023-09-07T02:52:59;17.50;99.90
25568;DHT22;13455;51.480;7.594;2023-09-07T02:55:26;17.40;99.90
25568;DHT22;13455;51.480;7.594;2023-09-07T02:57:51;17.50;99.90
25568;DHT22;13455;51.480;7.594;2023-09-07T03:00:17;17.30;99.90
25568;DHT22;13455;51.480;7.594;2023-09-07T03:02:43;17.30;99.90
25568;DHT22;13455;51.480;7.594;2023-09-07T03:05:09;17.40;99.90
25568;DHT22;13455;51.480;7.594;2023-09-07T03:07:35;17.30;99.90
25568;DHT22;13455;51.480;7.594;2023-09-07T03:10:01;17.40;99.90
25568;DHT22;13455;51.480;7.594;2023-09-07T03:12:27;16.90;99.90
25568;DHT22;13455;51.480;7.594;2023-09-07T03:14:53;17.60;99.90
25568;DHT22;13455;51.480;7.594;2023-09-07T03:17:18;17.40;99.90
25568;DHT22;13455;51.480;7.594;2023-09-07T03:19:46;17.50;99.90
25568;DHT22;13455;51.480;7.594;2023-09-07T03:22:12;17.40;99.90
25568;DHT22;13455;51.480;7.594;2023-09-07T03:24:38;17.60;99.90
25568;DHT22;13455;51.480;7.594;2023-09-07T03:27:04;17.40;99.90
25568;DHT22;13455;51.480;7.594;2023-09-07T03:29:31;16.70;99.90
25568;DHT22;13455;51.480;7.594;2023-09-07T03:32:01;17.50;99.90
25568;DHT22;13455;51.480;7.594;2023-09-07T03:34:27;17.40;99.90
25568;DHT22;13455;51.480;7.594;2023-09-07T03:36:53;17.40;99.90
25568;DHT22;13455;51.480;7.594;2023-09-07T03:39:19;17.10;99.90
25568;DHT22;13455;51.480;7.594;2023-09-07T03:41:47;17.40;99.90
25568;DHT22;13455;51.480;7.594;2023-09-07T03:44:12;17.40;99.90
25568;DHT22;13455;51.480;7.594;2023-09-07T03:46:38;17.40;99.90
25568;DHT22;13455;51.480;7.594;2023-09-07T03:49:04;17.20;99.90
25568;DHT22;13455;51.480;7.594;2023-09-07T03:51:29;17.20;99.90
25568;DHT22;13455;51.480;7.594;2023-09-07T03:53:55;17.30;99.90
25568;DHT22;13455;51.480;7.594;2023-09-07T03:56:20;17.20;99.90
25568;DHT22;13455;51.480;7.594;2023-09-07T03:58:46;17.20;99.90
25568;DHT22;13455;51.480;7.594;2023-09-07T04:01:14;17.10;99.90
25568;DHT22;13455;51.480;7.594;2023-09-07T04:03:40;17.10;99.90
25568;DHT22;13455;51.480;7.594;2023-09-07T04:06:06;17.10;99.90
25568;DHT22;13455;51.480;7.594;2023-09-07T04:08:32;17.10;99.90
25568;DHT22;13455;51.480;7.594;2023-09-07T04:10:57;17.00;99.90
25568;DHT22;13455;51.480;7.594;2023-09-07T04:13:23;17.00;99.90
25568;DHT22;13455;51.480;7.594;2023-09-07T04:15:48;17.00;99.90
25568;DHT22;13455;51.480;7.594;2023-09-07T04:18:14;17.00;99.90
25568;DHT22;13455;51.480;7.594;2023-09-07T04:20:42;17.00;99.90
25568;DHT22;13455;51.480;7.594;2023-09-07T04:23:07;17.10;99.90
25568;DHT22;13455;51.480;7.594;2023-09-07T04:25:33;17.20;99.90
25568;DHT22;13455;51.480;7.594;2023-09-07T04:27:58;17.20;99.90
25568;DHT22;13455;51.480;7.594;2023-09-07T04:30:24;17.00;99.90
25568;DHT22;13455;51.480;7.594;2023-09-07T04:32:50;17.40;99.90
25568;DHT22;13455;51.480;7.594;2023-09-07T04:35:15;17.10;99.90
25568;DHT22;13455;51.480;7.594;2023-09-07T04:37:44;17.20;99.90
25568;DHT22;13455;51.480;7.594;2023-09-07T04:40:11;17.90;99.90
25568;DHT22;13455;51.480;7.594;2023-09-07T04:42:37;17.30;99.90
25568;DHT22;13455;51.480;7.594;2023-09-07T04:45:05;17.40;99.90
25568;DHT22;13455;51.480;7.594;2023-09-07T04:47:30;17.20;99.90
25568;DHT22;13455;51.480;7.594;2023-09-07T04:49:56;17.20;99.90
25568;DHT22;13455;51.480;7.594;2023-09-07T04:52:22;17.20;99.90
25568;DHT22;13455;51.480;7.594;2023-09-07T04:54:47;17.30;99.90
25568;DHT22;13455;51.480;7.594;2023-09-07T04:57:16;17.20;99.90
25568;DHT22;13455;51.480;7.594;2023-09-07T04:59:42;17.20;99.90
25568;DHT22;13455;51.480;7.594;2023-09-07T05:02:08;17.20;99.90
25568;DHT22;13455;51.480;7.594;2023-09-07T05:04:34;17.20;99.90
25568;DHT22;13455;51.480;7.594;2023-09-07T05:06:59;17.30;99.90
25568;DHT22;13455;51.480;7.594;2023-09-07T05:09:25;17.20;99.90
25568;DHT22;13455;51.480;7.594;2023-09-07T05:11:51;17.20;99.90
25568;DHT22;13455;51.480;7.594;2023-09-07T05:14:18;17.20;99.90
25568;DHT22;13455;51.480;7.594;2023-09-07T05:16:43;17.20;99.90
25568;DHT22;13455;51.480;7.594;2023-09-07T05:19:09;17.20;99.90
25568;DHT22;13455;51.480;7.594;2023-09-07T05:21:35;17.20;99.90
25568;DHT22;13455;51.480;7.594;2023-09-07T05:24:00;17.20;99.90
25568;DHT22;13455;51.480;7.594;2023-09-07T05:26:26;17.20;99.90
25568;DHT22;13455;51.480;7.594;2023-09-07T05:28:51;17.10;99.90
25568;DHT22;13455;51.480;7.594;2023-09-07T05:31:17;17.30;99.90
25568;DHT22;13455;51.480;7.594;2023-09-07T05:33:43;17.20;99.90
25568;DHT22;13455;51.480;7.594;2023-09-07T05:36:08;17.20;99.90
25568;DHT22;13455;51.480;7.594;2023-09-07T05:38:34;17.30;99.90
25568;DHT22;13455;51.480;7.594;2023-09-07T05:41:00;17.30;99.90
25568;DHT22;13455;51.480;7.594;2023-09-07T05:43:26;17.30;99.90
25568;DHT22;13455;51.480;7.594;2023-09-07T05:45:51;17.20;99.90
25568;DHT22;13455;51.480;7.594;2023-09-07T05:48:17;17.30;99.90
25568;DHT22;13455;51.480;7.594;2023-09-07T05:50:42;17.40;99.90
25568;DHT22;13455;51.480;7.594;2023-09-07T05:53:08;17.30;99.90
25568;DHT22;13455;51.480;7.594;2023-09-07T05:55:34;17.40;99.90
25568;DHT22;13455;51.480;7.594;2023-09-07T05:58:03;17.30;99.90
25568;DHT22;13455;51.480;7.594;2023-09-07T06:00:29;17.50;99.90
25568;DHT22;13455;51.480;7.594;2023-09-07T06:02:55;17.40;99.90
25568;DHT22;13455;51.480;7.594;2023-09-07T06:05:21;17.50;99.90
25568;DHT22;13455;51.480;7.594;2023-09-07T06:07:47;17.50;99.90
25568;DHT22;13455;51.480;7.594;2023-09-07T06:10:12;17.70;99.90
25568;DHT22;13455;51.480;7.594;2023-09-07T06:12:38;17.60;99.90
25568;DHT22;13455;51.480;7.594;2023-09-07T06:15:04;17.70;99.90
25568;DHT22;13455;51.480;7.594;2023-09-07T06:17:30;17.60;99.90
25568;DHT22;13455;51.480;7.594;2023-09-07T06:19:56;17.80;99.90
25568;DHT22;13455;51.480;7.594;2023-09-07T06:22:22;17.70;99.90
25568;DHT22;13455;51.480;7.594;2023-09-07T06:24:48;17.80;99.90
25568;DHT22;13455;51.480;7.594;2023-09-07T06:27:14;18.00;99.90
25568;DHT22;13455;51.480;7.594;2023-09-07T06:29:39;18.00;99.90
25568;DHT22;13455;51.480;7.594;2023-09-07T06:32:05;18.10;99.90
25568;DHT22;13455;51.480;7.594;2023-09-07T06:34:31;18.20;99.90
25568;DHT22;13455;51.480;7.594;2023-09-07T06:36:56;18.20;99.90
25568;DHT22;13455;51.480;7.594;2023-09-07T06:39:22;18.30;99.90
25568;DHT22;13455;51.480;7.594;2023-09-07T06:41:48;18.40;99.90
25568;DHT22;13455;51.480;7.594;2023-09-07T06:44:14;18.40;99.90
25568;DHT22;13455;51.480;7.594;2023-09-07T06:46:40;18.50;99.90
25568;DHT22;13455;51.480;7.594;2023-09-07T06:49:05;18.60;99.90
25568;DHT22;13455;51.480;7.594;2023-09-07T06:51:31;18.70;99.90
25568;DHT22;13455;51.480;7.594;2023-09-07T06:53:57;18.90;99.90
25568;DHT22;13455;51.480;7.594;2023-09-07T06:56:23;19.00;99.90
25568;DHT22;13455;51.480;7.594;2023-09-07T06:58:49;19.10;99.90
25568;DHT22;13455;51.480;7.594;2023-09-07T07:01:15;19.20;99.90
25568;DHT22;13455;51.480;7.594;2023-09-07T07:03:41;19.30;99.90
25568;DHT22;13455;51.480;7.594;2023-09-07T07:06:07;19.50;99.90
25568;DHT22;13455;51.480;7.594;2023-09-07T07:08:32;19.60;99.90
25568;DHT22;13455;51.480;7.594;2023-09-07T07:10:58;19.70;99.90
25568;DHT22;13455;51.480;7.594;2023-09-07T07:13:24;19.90;99.90
25568;DHT22;13455;51.480;7.594;2023-09-07T07:15:49;20.00;99.90
25568;DHT22;13455;51.480;7.594;2023-09-07T07:20:42;20.40;99.90
25568;DHT22;13455;51.480;7.594;2023-09-07T07:23:09;20.50;99.90
25568;DHT22;13455;51.480;7.594;2023-09-07T07:25:35;20.60;99.90
25568;DHT22;13455;51.480;7.594;2023-09-07T07:28:01;20.70;99.90
25568;DHT22;13455;51.480;7.594;2023-09-07T07:30:31;20.80;99.90
25568;DHT22;13455;51.480;7.594;2023-09-07T07:32:57;21.00;99.90
25568;DHT22;13455;51.480;7.594;2023-09-07T07:35:22;21.10;99.90
25568;DHT22;13455;51.480;7.594;2023-09-07T07:37:52;21.30;99.90
25568;DHT22;13455;51.480;7.594;2023-09-07T07:42:45;21.80;99.90
25568;DHT22;13455;51.480;7.594;2023-09-07T07:45:12;21.90;99.90
25568;DHT22;13455;51.480;7.594;2023-09-07T07:50:04;22.20;99.90
25568;DHT22;13455;51.480;7.594;2023-09-07T07:52:30;22.30;99.90
25568;DHT22;13455;51.480;7.594;2023-09-07T07:54:56;22.50;99.90
25568;DHT22;13455;51.480;7.594;2023-09-07T07:57:21;23.40;99.90
25568;DHT22;13455;51.480;7.594;2023-09-07T07:59:47;23.00;99.90
25568;DHT22;13455;51.480;7.594;2023-09-07T08:02:13;23.00;99.90
25568;DHT22;13455;51.480;7.594;2023-09-07T08:04:38;23.00;99.90
25568;DHT22;13455;51.480;7.594;2023-09-07T08:07:04;23.20;99.90
25568;DHT22;13455;51.480;7.594;2023-09-07T08:09:30;23.30;99.90
25568;DHT22;13455;51.480;7.594;2023-09-07T08:11:56;23.60;99.90
25568;DHT22;13455;51.480;7.594;2023-09-07T08:14:23;23.60;99.90
25568;DHT22;13455;51.480;7.594;2023-09-07T08:16:49;23.50;99.90
25568;DHT22;13455;51.480;7.594;2023-09-07T08:19:15;23.80;99.90
25568;DHT22;13455;51.480;7.594;2023-09-07T08:21:40;23.80;99.90
25568;DHT22;13455;51.480;7.594;2023-09-07T08:24:08;24.10;99.90
25568;DHT22;13455;51.480;7.594;2023-09-07T08:26:35;24.10;99.90
25568;DHT22;13455;51.480;7.594;2023-09-07T08:29:00;24.30;99.90
25568;DHT22;13455;51.480;7.594;2023-09-07T08:31:34;24.40;99.90
25568;DHT22;13455;51.480;7.594;2023-09-07T08:34:01;24.20;99.90
25568;DHT22;13455;51.480;7.594;2023-09-07T08:36:31;24.70;99.90
25568;DHT22;13455;51.480;7.594;2023-09-07T08:39:06;24.70;99.90
25568;DHT22;13455;51.480;7.594;2023-09-07T08:41:41;24.90;99.90
25568;DHT22;13455;51.480;7.594;2023-09-07T08:44:16;25.00;99.90
25568;DHT22;13455;51.480;7.594;2023-09-07T08:46:43;25.00;99.90
25568;DHT22;13455;51.480;7.594;2023-09-07T08:51:35;25.40;99.90
25568;DHT22;13455;51.480;7.594;2023-09-07T08:54:05;25.40;99.90
25568;DHT22;13455;51.480;7.594;2023-09-07T08:56:32;25.60;99.90
25568;DHT22;13455;51.480;7.594;2023-09-07T09:03:50;26.00;99.90
25568;DHT22;13455;51.480;7.594;2023-09-07T09:06:20;26.10;99.90
25568;DHT22;13455;51.480;7.594;2023-09-07T09:08:50;26.40;99.90
25568;DHT22;13455;51.480;7.594;2023-09-07T09:11:19;26.40;99.90
25568;DHT22;13455;51.480;7.594;2023-09-07T09:13:47;26.50;99.90
25568;DHT22;13455;51.480;7.594;2023-09-07T09:16:13;26.60;99.90
25568;DHT22;13455;51.480;7.594;2023-09-07T09:18:53;26.80;99.90
25568;DHT22;13455;51.480;7.594;2023-09-07T09:23:50;27.20;99.90
25568;DHT22;13455;51.480;7.594;2023-09-07T09:26:17;27.20;99.90
25568;DHT22;13455;51.480;7.594;2023-09-07T09:50:50;28.60;99.70
25568;DHT22;13455;51.480;7.594;2023-09-07T10:05:46;29.20;96.50
25568;DHT22;13455;51.480;7.594;2023-09-07T10:15:36;29.80;95.30
25568;DHT22;13455;51.480;7.594;2023-09-07T10:20:57;30.00;95.00
25568;DHT22;13455;51.480;7.594;2023-09-07T10:23:38;30.00;94.30
25568;DHT22;13455;51.480;7.594;2023-09-07T10:26:05;30.00;94.20
25568;DHT22;13455;51.480;7.594;2023-09-07T10:28:35;30.20;99.90
25568;DHT22;13455;51.480;7.594;2023-09-07T10:31:12;30.50;99.90
25568;DHT22;13455;51.480;7.594;2023-09-07T10:36:05;30.50;99.90
25568;DHT22;13455;51.480;7.594;2023-09-07T10:38:32;30.90;99.90
25568;DHT22;13455;51.480;7.594;2023-09-07T10:41:02;30.90;97.40
25568;DHT22;13455;51.480;7.594;2023-09-07T10:43:33;30.80;92.60
25568;DHT22;13455;51.480;7.594;2023-09-07T10:45:59;30.90;92.10
25568;DHT22;13455;51.480;7.594;2023-09-07T10:48:28;31.10;99.90
25568;DHT22;13455;51.480;7.594;2023-09-07T10:50:54;31.10;99.90
25568;DHT22;13455;51.480;7.594;2023-09-07T10:53:28;31.20;94.60
25568;DHT22;13455;51.480;7.594;2023-09-07T11:00:55;31.90;88.70
25568;DHT22;13455;51.480;7.594;2023-09-07T11:03:21;31.80;88.80
25568;DHT22;13455;51.480;7.594;2023-09-07T11:10:40;32.30;84.00
25568;DHT22;13455;51.480;7.594;2023-09-07T11:13:06;32.20;84.40
25568;DHT22;13455;51.480;7.594;2023-09-07T11:22:57;32.70;82.70
25568;DHT22;13455;51.480;7.594;2023-09-07T11:25:22;32.70;82.30
25568;DHT22;13455;51.480;7.594;2023-09-07T11:27:48;32.60;81.30
25568;DHT22;13455;51.480;7.594;2023-09-07T11:30:13;32.60;82.70
25568;DHT22;13455;51.480;7.594;2023-09-07T11:32:39;32.80;83.00
25568;DHT22;13455;51.480;7.594;2023-09-07T11:35:09;33.00;81.90
25568;DHT22;13455;51.480;7.594;2023-09-07T11:40:01;33.30;78.30
25568;DHT22;13455;51.480;7.594;2023-09-07T11:49:54;33.90;74.10
25568;DHT22;13455;51.480;7.594;2023-09-07T11:52:20;33.90;73.90
25568;DHT22;13455;51.480;7.594;2023-09-07T11:57:11;34.20;71.50
25568;DHT22;13455;51.480;7.594;2023-09-07T11:59:37;34.70;98.70
25568;DHT22;13455;51.480;7.594;2023-09-07T12:11:47;35.10;74.20
25568;DHT22;13455;51.480;7.594;2023-09-07T12:14:12;35.10;92.70
25568;DHT22;13455;51.480;7.594;2023-09-07T12:16:38;35.30;86.40
25568;DHT22;13455;51.480;7.594;2023-09-07T12:21:30;35.30;72.10
25568;DHT22;13455;51.480;7.594;2023-09-07T12:26:21;35.50;71.80
25568;DHT22;13455;51.480;7.594;2023-09-07T12:31:13;35.80;71.50
25568;DHT22;13455;51.480;7.594;2023-09-07T12:41:03;36.30;67.20
25568;DHT22;13455;51.480;7.594;2023-09-07T12:43:28;36.30;68.10
25568;DHT22;13455;51.480;7.594;2023-09-07T12:48:20;36.80;65.80
25568;DHT22;13455;51.480;7.594;2023-09-07T12:58:04;37.00;64.30
25568;DHT22;13455;51.480;7.594;2023-09-07T13:00:30;37.50;61.90
25568;DHT22;13455;51.480;7.594;2023-09-07T13:02:56;37.70;62.00
25568;DHT22;13455;51.480;7.594;2023-09-07T13:05:22;37.70;59.90
25568;DHT22;13455;51.480;7.594;2023-09-07T13:07:47;38.60;60.60
25568;DHT22;13455;51.480;7.594;2023-09-07T13:10:13;37.90;58.20
25568;DHT22;13455;51.480;7.594;2023-09-07T13:15:05;37.90;58.90
25568;DHT22;13455;51.480;7.594;2023-09-07T13:17:31;38.10;59.30
25568;DHT22;13455;51.480;7.594;2023-09-07T13:24:48;38.70;55.80
25568;DHT22;13455;51.480;7.594;2023-09-07T13:27:15;38.70;56.70
25568;DHT22;13455;51.480;7.594;2023-09-07T13:29:41;39.10;55.20
25568;DHT22;13455;51.480;7.594;2023-09-07T13:32:06;39.10;91.20
25568;DHT22;13455;51.480;7.594;2023-09-07T13:34:32;39.30;53.50
25568;DHT22;13455;51.480;7.594;2023-09-07T13:39:24;39.90;91.70
25568;DHT22;13455;51.480;7.594;2023-09-07T13:46:43;40.40;49.50
25568;DHT22;13455;51.480;7.594;2023-09-07T13:49:09;40.40;48.40
25568;DHT22;13455;51.480;7.594;2023-09-07T13:54:05;40.90;48.70
25568;DHT22;13455;51.480;7.594;2023-09-07T13:56:32;40.90;49.40
25568;DHT22;13455;51.480;7.594;2023-09-07T14:01:23;41.30;46.40
25568;DHT22;13455;51.480;7.594;2023-09-07T14:06:16;41.70;75.20
25568;DHT22;13455;51.480;7.594;2023-09-07T14:08:43;41.80;46.40
25568;DHT22;13455;51.480;7.594;2023-09-07T14:11:09;41.90;43.90
25568;DHT22;13455;51.480;7.594;2023-09-07T14:13:37;41.90;57.00
25568;DHT22;13455;51.480;7.594;2023-09-07T14:16:04;42.10;51.20
25568;DHT22;13455;51.480;7.594;2023-09-07T14:20:56;42.50;40.50
25568;DHT22;13455;51.480;7.594;2023-09-07T14:23:25;42.40;40.00
25568;DHT22;13455;51.480;7.594;2023-09-07T14:30:47;42.30;39.30
25568;DHT22;13455;51.480;7.594;2023-09-07T14:33:13;42.30;40.20
25568;DHT22;13455;51.480;7.594;2023-09-07T14:35:39;42.50;40.80
25568;DHT22;13455;51.480;7.594;2023-09-07T14:38:05;42.60;40.10
25568;DHT22;13455;51.480;7.594;2023-09-07T14:40:30;42.90;38.60
25568;DHT22;13455;51.480;7.594;2023-09-07T14:42:57;43.10;37.90
25568;DHT22;13455;51.480;7.594;2023-09-07T14:45:23;43.00;36.70
25568;DHT22;13455;51.480;7.594;2023-09-07T14:47:50;43.20;36.70
25568;DHT22;13455;51.480;7.594;2023-09-07T15:09:49;44.00;32.90
25568;DHT22;13455;51.480;7.594;2023-09-07T15:12:15;44.10;33.40
25568;DHT22;13455;51.480;7.594;2023-09-07T15:14:41;44.00;33.50
25568;DHT22;13455;51.480;7.594;2023-09-07T15:19:33;43.70;33.70
25568;DHT22;13455;51.480;7.594;2023-09-07T15:21:59;43.60;46.00
25568;DHT22;13455;51.480;7.594;2023-09-07T15:24:25;43.60;48.70
25568;DHT22;13455;51.480;7.594;2023-09-07T15:29:17;43.30;33.30
25568;DHT22;13455;51.480;7.594;2023-09-07T15:31:43;43.10;33.20
25568;DHT22;13455;51.480;7.594;2023-09-07T15:34:09;42.90;32.50
25568;DHT22;13455;51.480;7.594;2023-09-07T15:36:34;42.80;32.40
25568;DHT22;13455;51.480;7.594;2023-09-07T15:41:26;44.50;32.10
25568;DHT22;13455;51.480;7.594;2023-09-07T15:43:53;45.20;30.60
25568;DHT22;13455;51.480;7.594;2023-09-07T15:51:11;48.00;30.00
25568;DHT22;13455;51.480;7.594;2023-09-07T15:53:37;48.20;30.70
25568;DHT22;13455;51.480;7.594;2023-09-07T15:56:03;49.00;30.20
25568;DHT22;13455;51.480;7.594;2023-09-07T16:00:56;49.60;29.30
25568;DHT22;13455;51.480;7.594;2023-09-07T16:03:21;49.90;28.90
25568;DHT22;13455;51.480;7.594;2023-09-07T16:05:47;50.00;29.30
25568;DHT22;13455;51.480;7.594;2023-09-07T16:13:05;51.00;27.80
25568;DHT22;13455;51.480;7.594;2023-09-07T16:15:31;51.00;28.10
25568;DHT22;13455;51.480;7.594;2023-09-07T16:25:15;50.20;28.90
25568;DHT22;13455;51.480;7.594;2023-09-07T16:27:41;50.30;48.20
25568;DHT22;13455;51.480;7.594;2023-09-07T16:52:10;44.20;30.00
25568;DHT22;13455;51.480;7.594;2023-09-07T16:54:36;43.80;30.40
25568;DHT22;13455;51.480;7.594;2023-09-07T16:57:01;42.90;31.40
25568;DHT22;13455;51.480;7.594;2023-09-07T16:59:27;41.90;32.60
25568;DHT22;13455;51.480;7.594;2023-09-07T17:01:52;40.80;33.30
25568;DHT22;13455;51.480;7.594;2023-09-07T17:06:51;38.70;34.60
25568;DHT22;13455;51.480;7.594;2023-09-07T17:09:16;38.50;36.20
25568;DHT22;13455;51.480;7.594;2023-09-07T17:14:08;36.10;37.40
25568;DHT22;13455;51.480;7.594;2023-09-07T17:16:34;36.00;37.80
25568;DHT22;13455;51.480;7.594;2023-09-07T17:19:00;35.40;39.40
25568;DHT22;13455;51.480;7.594;2023-09-07T17:21:28;35.10;39.50
25568;DHT22;13455;51.480;7.594;2023-09-07T17:26:19;34.30;63.20
25568;DHT22;13455;51.480;7.594;2023-09-07T17:28:45;33.90;41.70
25568;DHT22;13455;51.480;7.594;2023-09-07T17:31:14;33.70;42.30
25568;DHT22;13455;51.480;7.594;2023-09-07T17:33:40;33.10;43.30
25568;DHT22;13455;51.480;7.594;2023-09-07T17:36:16;33.00;43.90
25568;DHT22;13455;51.480;7.594;2023-09-07T17:43:37;31.90;86.60
25568;DHT22;13455;51.480;7.594;2023-09-07T17:50:55;31.10;46.40
25568;DHT22;13455;51.480;7.594;2023-09-07T17:53:21;30.70;47.50
25568;DHT22;13455;51.480;7.594;2023-09-07T18:03:04;30.10;49.30
25568;DHT22;13455;51.480;7.594;2023-09-07T18:07:56;29.80;50.10
25568;DHT22;13455;51.480;7.594;2023-09-07T18:12:48;29.50;50.60
25568;DHT22;13455;51.480;7.594;2023-09-07T18:15:13;29.40;51.60
25568;DHT22;13455;51.480;7.594;2023-09-07T18:17:39;29.20;52.10
25568;DHT22;13455;51.480;7.594;2023-09-07T18:27:24;28.40;53.40
25568;DHT22;13455;51.480;7.594;2023-09-07T18:34:43;28.10;93.80
25568;DHT22;13455;51.480;7.594;2023-09-07T18:37:08;27.90;59.10
25568;DHT22;13455;51.480;7.594;2023-09-07T18:42:00;27.70;56.10
25568;DHT22;13455;51.480;7.594;2023-09-07T18:59:05;27.10;67.40
25568;DHT22;13455;51.480;7.594;2023-09-07T19:01:32;26.90;59.50
25568;DHT22;13455;51.480;7.594;2023-09-07T19:11:35;26.10;87.60
25568;DHT22;13455;51.480;7.594;2023-09-07T19:14:02;26.30;85.70
25568;DHT22;13455;51.480;7.594;2023-09-07T19:16:28;26.20;62.90
25568;DHT22;13455;51.480;7.594;2023-09-07T19:18:54;26.00;63.50
25568;DHT22;13455;51.480;7.594;2023-09-07T19:21:19;25.90;64.10
25568;DHT22;13455;51.480;7.594;2023-09-07T19:26:33;25.70;65.10
25568;DHT22;13455;51.480;7.594;2023-09-07T19:31:28;25.60;65.70
25568;DHT22;13455;51.480;7.594;2023-09-07T19:33:55;25.60;66.90
25568;DHT22;13455;51.480;7.594;2023-09-07T19:51:13;25.20;70.10
25568;DHT22;13455;51.480;7.594;2023-09-07T19:53:39;25.00;70.90
25568;DHT22;13455;51.480;7.594;2023-09-07T19:58:32;24.90;72.50
25568;DHT22;13455;51.480;7.594;2023-09-07T20:00:58;24.90;73.20
25568;DHT22;13455;51.480;7.594;2023-09-07T20:03:23;24.80;73.90
25568;DHT22;13455;51.480;7.594;2023-09-07T20:05:49;24.70;74.70
25568;DHT22;13455;51.480;7.594;2023-09-07T20:08:15;24.70;75.60
25568;DHT22;13455;51.480;7.594;2023-09-07T20:15:34;24.50;77.10
25568;DHT22;13455;51.480;7.594;2023-09-07T20:17:59;24.40;78.60
25568;DHT22;13455;51.480;7.594;2023-09-07T20:27:46;24.20;81.20
25568;DHT22;13455;51.480;7.594;2023-09-07T20:32:37;24.10;81.90
25568;DHT22;13455;51.480;7.594;2023-09-07T20:37:31;24.00;83.20
25568;DHT22;13455;51.480;7.594;2023-09-07T20:44:49;23.90;85.40
25568;DHT22;13455;51.480;7.594;2023-09-07T20:47:15;23.90;86.80
25568;DHT22;13455;51.480;7.594;2023-09-07T20:54:33;23.30;95.00
25568;DHT22;13455;51.480;7.594;2023-09-07T20:56:59;23.60;88.60
25568;DHT22;13455;51.480;7.594;2023-09-07T21:06:48;23.50;99.90
25568;DHT22;13455;51.480;7.594;2023-09-07T21:09:14;23.40;90.60
25568;DHT22;13455;51.480;7.594;2023-09-07T21:11:42;23.30;96.10
25568;DHT22;13455;51.480;7.594;2023-09-07T21:26:18;23.00;92.70
25568;DHT22;13455;51.480;7.594;2023-09-07T21:28:44;23.00;93.10
25568;DHT22;13455;51.480;7.594;2023-09-07T21:31:09;22.90;97.10
25568;DHT22;13455;51.480;7.594;2023-09-07T21:36:05;22.60;93.90
25568;DHT22;13455;51.480;7.594;2023-09-07T21:43:24;23.00;95.30
25568;DHT22;13455;51.480;7.594;2023-09-07T21:53:09;22.50;96.30
25568;DHT22;13455;51.480;7.594;2023-09-07T21:55:34;22.30;97.10
25568;DHT22;13455;51.480;7.594;2023-09-07T21:58:00;22.30;97.70
25568;DHT22;13455;51.480;7.594;2023-09-07T22:00:25;22.30;98.80
25568;DHT22;13455;51.480;7.594;2023-09-07T22:02:51;22.20;98.40
25568;DHT22;13455;51.480;7.594;2023-09-07T22:15:03;22.40;99.90
25568;DHT22;13455;51.480;7.594;2023-09-07T22:17:29;22.40;99.90
25568;DHT22;13455;51.480;7.594;2023-09-07T22:19:55;22.30;99.90
25568;DHT22;13455;51.480;7.594;2023-09-07T22:22:21;22.10;99.90
25568;DHT22;13455;51.480;7.594;2023-09-07T22:24:54;21.90;99.90
25568;DHT22;13455;51.480;7.594;2023-09-07T22:27:20;21.90;99.90
25568;DHT22;13455;51.480;7.594;2023-09-07T22:29:46;21.80;99.90
25568;DHT22;13455;51.480;7.594;2023-09-07T22:32:12;21.70;99.90
25568;DHT22;13455;51.480;7.594;2023-09-07T22:34:37;21.60;99.90
25568;DHT22;13455;51.480;7.594;2023-09-07T22:37:03;21.40;99.90
25568;DHT22;13455;51.480;7.594;2023-09-07T22:39:29;21.60;99.90
25568;DHT22;13455;51.480;7.594;2023-09-07T22:41:55;21.60;99.90
25568;DHT22;13455;51.480;7.594;2023-09-07T22:44:20;21.50;99.90
25568;DHT22;13455;51.480;7.594;2023-09-07T22:46:46;21.10;99.90
25568;DHT22;13455;51.480;7.594;2023-09-07T22:49:12;21.30;99.90
25568;DHT22;13455;51.480;7.594;2023-09-07T22:51:39;21.00;99.90
25568;DHT22;13455;51.480;7.594;2023-09-07T22:54:04;21.30;99.90
25568;DHT22;13455;51.480;7.594;2023-09-07T22:56:30;21.10;99.90
25568;DHT22;13455;51.480;7.594;2023-09-07T22:58:57;20.90;99.90
25568;DHT22;13455;51.480;7.594;2023-09-07T23:01:22;20.90;99.90
25568;DHT22;13455;51.480;7.594;2023-09-07T23:03:48;20.80;99.90
25568;DHT22;13455;51.480;7.594;2023-09-07T23:06:14;20.70;99.90
25568;DHT22;13455;51.480;7.594;2023-09-07T23:08:39;20.60;99.90